Time;durP1;ratioP1;P1;durP2;ratioP2;P2;SDS_P1;SDS_P2;PMS_P1;PMS_P2;Temp;Humidity;BMP_temperature;BMP_pressure;BME280_temperature;BME280_humidity;BME280_pressure;Samples;Min_cycle;Max_cycle;Signal;HPM_P1;HPM_P2
2023/12/25 00:04:43;;;;;;;3.65;0.85;;;;;;;11.09;92.10;99499.34;10329665;28;20756;-62
2023/12/25 00:09:45;;;;;;;2.95;0.73;;;;;;;11.05;92.26;99500.59;10350140;28;20564;-62
2023/12/25 00:14:46;;;;;;;3.28;1.17;;;;;;;11.02;92.41;99496.44;10333657;28;20049;-61
2023/12/25 00:19:48;;;;;;;2.97;1.00;;;;;;;11.06;92.29;99510.28;10336408;28;20058;-61
2023/12/25 00:24:49;;;;;;;1.55;0.55;;;;;;;11.02;93.12;99490.25;10338420;28;20132;-61
2023/12/25 00:29:51;;;;;;;1.80;0.60;;;;;;;11.00;93.29;99476.25;10355293;28;20045;-62
2023/12/25 00:34:52;;;;;;;2.17;0.85;;;;;;;11.00;93.81;99481.56;10340126;28;20547;-60
2023/12/25 00:39:54;;;;;;;4.25;0.93;;;;;;;10.89;93.69;99488.75;10344010;28;20671;-62
2023/12/25 00:44:55;;;;;;;2.97;0.80;;;;;;;10.92;93.94;99493.78;10343762;28;20080;-62
2023/12/25 00:49:56;;;;;;;4.10;1.10;;;;;;;11.00;94.23;99485.06;10342172;28;20057;-62
2023/12/25 00:54:58;;;;;;;3.55;1.02;;;;;;;10.96;94.28;99503.16;10343362;28;20053;-62
2023/12/25 00:59:59;;;;;;;3.90;0.90;;;;;;;10.65;94.56;99443.16;10346040;28;20060;-63
2023/12/25 01:05:02;;;;;;;3.45;0.95;;;;;;;10.92;94.34;99483.13;10350336;28;20159;-62
2023/12/25 01:10:04;;;;;;;4.07;1.20;;;;;;;10.95;94.92;99480.19;10347021;28;20053;-62
2023/12/25 01:15:06;;;;;;;2.85;1.05;;;;;;;11.00;95.02;99486.91;10351003;28;20045;-61
2023/12/25 01:20:10;;;;;;;4.85;0.90;;;;;;;10.96;94.61;99481.03;10339314;28;20119;-61
2023/12/25 01:25:11;;;;;;;3.70;1.08;;;;;;;10.95;94.77;99477.50;10328854;28;20173;-61
2023/12/25 01:30:13;;;;;;;3.42;1.55;;;;;;;10.68;94.98;99450.84;10342451;28;20065;-62
2023/12/25 01:35:14;;;;;;;4.03;0.93;;;;;;;10.94;95.41;99497.16;10342111;28;20049;-63
2023/12/25 01:40:17;;;;;;;4.43;1.20;;;;;;;10.93;95.21;99491.97;10345258;28;20069;-62
2023/12/25 01:45:19;;;;;;;3.38;1.00;;;;;;;10.92;95.71;99507.09;10343434;28;20122;-63
2023/12/25 01:50:20;;;;;;;3.38;0.98;;;;;;;10.96;95.46;99513.81;10345044;28;20057;-62
2023/12/25 01:55:22;;;;;;;4.30;1.75;;;;;;;10.95;95.82;99501.47;10342264;28;20064;-62
2023/12/25 02:00:24;;;;;;;4.25;1.52;;;;;;;10.95;95.98;99495.31;10345045;28;20074;-63
2023/12/25 02:05:26;;;;;;;2.13;1.15;;;;;;;10.86;96.18;99480.22;10342354;28;20073;-62
2023/12/25 02:10:29;;;;;;;4.03;0.90;;;;;;;10.96;96.23;99497.84;10337654;28;20288;-61
2023/12/25 02:15:31;;;;;;;4.28;1.20;;;;;;;10.93;96.51;99495.47;10338878;28;20572;-62
2023/12/25 02:20:33;;;;;;;4.95;1.27;;;;;;;10.92;97.05;99499.09;10338847;28;20060;-62
2023/12/25 02:25:43;;;;;;;3.55;1.58;;;;;;;10.90;97.42;99501.09;10330858;28;20107;-63
2023/12/25 02:30:45;;;;;;;4.90;1.10;;;;;;;10.94;97.49;99507.81;10344474;28;21090;-61
2023/12/25 02:35:48;;;;;;;4.03;1.17;;;;;;;10.93;97.93;99499.97;10337539;28;20046;-62
2023/12/25 02:40:50;;;;;;;3.85;1.23;;;;;;;10.88;98.13;99500.38;10339187;28;21240;-62
2023/12/25 02:45:51;;;;;;;2.65;1.20;;;;;;;10.95;98.46;99508.63;10337519;28;20064;-61
2023/12/25 02:50:53;;;;;;;2.83;1.17;;;;;;;10.90;98.53;99508.22;10344251;28;20050;-61
2023/12/25 02:55:54;;;;;;;4.45;0.95;;;;;;;11.02;98.61;99517.75;10343598;28;20057;-61
2023/12/25 03:00:56;;;;;;;4.97;0.90;;;;;;;11.00;98.73;99503.72;10348950;28;20052;-63
2023/12/25 03:05:58;;;;;;;4.15;1.02;;;;;;;10.96;99.42;99497.84;10338698;28;20050;-62
2023/12/25 03:11:00;;;;;;;2.45;0.90;;;;;;;11.00;99.43;99524.19;10344648;28;20053;-62
2023/12/25 03:16:05;;;;;;;3.90;1.75;;;;;;;11.00;99.71;99524.19;10342193;28;20132;-62
2023/12/25 03:21:07;;;;;;;4.32;1.30;;;;;;;10.98;100.00;99540.31;10335936;28;20052;-63
2023/12/25 03:26:09;;;;;;;3.97;1.30;;;;;;;10.92;100.00;99512.41;10344496;28;20420;-61
2023/12/25 03:31:11;;;;;;;3.50;1.40;;;;;;;10.93;100.00;99524.75;10336545;28;20044;-62
2023/12/25 03:36:12;;;;;;;5.30;1.23;;;;;;;10.91;100.00;99534.72;10337290;28;20057;-62
2023/12/25 03:41:14;;;;;;;2.60;1.17;;;;;;;10.94;100.00;99539.75;10336653;28;20644;-61
2023/12/25 03:46:15;;;;;;;4.63;1.48;;;;;;;10.91;100.00;99521.41;10339400;28;20053;-61
2023/12/25 03:51:17;;;;;;;3.08;1.35;;;;;;;10.94;100.00;99521.13;10343217;28;20797;-62
2023/12/25 03:56:18;;;;;;;2.80;0.90;;;;;;;11.00;100.00;99527.69;10335967;28;20243;-62
2023/12/25 04:01:21;;;;;;;3.38;1.10;;;;;;;11.04;100.00;99499.78;10344952;28;20734;-61
2023/12/25 04:06:24;;;;;;;2.97;0.68;;;;;;;11.00;100.00;99505.53;10346613;28;20774;-63
2023/12/25 04:11:25;;;;;;;3.80;0.85;;;;;;;10.96;100.00;99511.16;10344748;28;20053;-61
2023/12/25 04:16:27;;;;;;;3.50;1.38;;;;;;;10.90;100.00;99519.72;10346537;28;20050;-62
2023/12/25 04:21:32;;;;;;;2.17;0.70;;;;;;;10.93;100.00;99524.75;10344002;28;20061;-63
2023/12/25 04:26:34;;;;;;;0.95;0.30;;;;;;;10.87;100.00;99517.34;10340275;28;20050;-64
2023/12/25 04:31:35;;;;;;;0.60;0.25;;;;;;;10.87;100.00;99519.16;10351047;28;20708;-60
2023/12/25 04:36:37;;;;;;;1.45;0.38;;;;;;;10.86;100.00;99515.66;10347706;28;20050;-62
2023/12/25 04:41:38;;;;;;;1.10;0.40;;;;;;;10.94;100.00;99518.47;10341839;28;20049;-62
2023/12/25 04:46:40;;;;;;;1.45;0.22;;;;;;;10.85;100.00;99500.66;10344541;28;20109;-63
2023/12/25 04:51:42;;;;;;;0.57;0.20;;;;;;;10.95;100.00;99511.31;10350886;28;20081;-62
2023/12/25 04:56:44;;;;;;;1.67;0.32;;;;;;;10.93;100.00;99522.09;10345051;28;20931;-63
2023/12/25 05:01:48;;;;;;;0.38;0.20;;;;;;;10.93;100.00;99540.75;10346612;28;20054;-62
2023/12/25 05:06:50;;;;;;;1.23;0.30;;;;;;;10.90;100.00;99540.16;10349312;28;20514;-61
2023/12/25 05:11:52;;;;;;;1.85;0.30;;;;;;;10.94;100.00;99523.78;10342661;28;20203;-63
2023/12/25 05:16:53;;;;;;;0.77;0.15;;;;;;;10.93;100.00;99530.09;10343104;28;20056;-63
2023/12/25 05:21:55;;;;;;;1.45;0.60;;;;;;;10.99;100.00;99522.50;10341566;28;20090;-61
2023/12/25 05:26:56;;;;;;;1.55;0.30;;;;;;;10.93;100.00;99542.56;10343325;28;20061;-61
2023/12/25 05:31:58;;;;;;;0.80;0.20;;;;;;;10.93;100.00;99547.91;10340694;28;20195;-61
2023/12/25 05:36:59;;;;;;;0.32;0.10;;;;;;;10.84;100.00;99544.25;10342798;28;20101;-60
2023/12/25 05:42:00;;;;;;;0.98;0.22;;;;;;;10.87;100.00;99559.94;10342185;28;20045;-61
2023/12/25 05:47:02;;;;;;;0.57;0.10;;;;;;;10.89;100.00;99559.81;10350229;28;20049;-62
2023/12/25 05:52:04;;;;;;;0.40;0.10;;;;;;;10.86;100.00;99560.91;10344010;28;20107;-63
2023/12/25 05:57:05;;;;;;;0.47;0.00;;;;;;;10.74;100.00;99557.56;10341717;28;20046;-62
2023/12/25 06:02:06;;;;;;;0.30;0.10;;;;;;;10.66;100.00;99575.22;10337387;28;20042;-64
2023/12/25 06:07:09;;;;;;;0.55;0.10;;;;;;;10.53;100.00;99576.34;10337285;28;20666;-63
2023/12/25 06:12:11;;;;;;;0.57;0.30;;;;;;;10.49;100.00;99582.94;10340807;28;20057;-61
2023/12/25 06:17:12;;;;;;;1.77;0.00;;;;;;;10.49;100.00;99593.56;10322770;28;20057;-63
2023/12/25 06:22:14;;;;;;;0.43;0.00;;;;;;;10.43;100.00;99586.16;10348917;28;20127;-61
2023/12/25 06:27:15;;;;;;;0.10;0.10;;;;;;;10.48;100.00;99599.03;10339205;28;20575;-62
2023/12/25 06:32:18;;;;;;;0.20;0.15;;;;;;;10.38;100.00;99601.69;10340034;28;20111;-62
2023/12/25 06:37:19;;;;;;;0.40;0.10;;;;;;;10.42;100.00;99600.44;10341198;28;20073;-61
2023/12/25 06:42:21;;;;;;;1.00;0.03;;;;;;;10.39;100.00;99603.38;10343357;28;20500;-61
2023/12/25 06:47:22;;;;;;;0.40;0.00;;;;;;;10.31;100.00;99585.41;10343017;28;20072;-63
2023/12/25 06:52:24;;;;;;;0.15;0.03;;;;;;;10.23;100.00;99580.78;10339002;28;20718;-61
2023/12/25 06:57:26;;;;;;;1.05;0.10;;;;;;;10.07;100.00;99575.13;10339739;28;20095;-62
2023/12/25 07:02:29;;;;;;;0.20;0.00;;;;;;;10.23;100.00;99591.41;10338262;28;20096;-62
2023/12/25 07:07:31;;;;;;;0.28;0.00;;;;;;;10.30;100.00;99597.03;10342175;28;20119;-62
2023/12/25 07:12:32;;;;;;;0.60;0.20;;;;;;;10.28;100.00;99588.34;10347368;28;20053;-62
2023/12/25 07:17:34;;;;;;;0.10;0.00;;;;;;;10.30;100.00;99604.16;10340802;28;20050;-63
2023/12/25 07:22:35;;;;;;;0.73;0.10;;;;;;;10.20;100.00;99594.34;10338025;28;20566;-61
2023/12/25 07:27:37;;;;;;;0.65;0.00;;;;;;;10.16;100.00;99592.94;10337394;28;20069;-63
2023/12/25 07:32:40;;;;;;;0.90;0.22;;;;;;;10.15;100.00;99599.25;10339367;28;20052;-62
2023/12/25 07:37:42;;;;;;;0.13;0.10;;;;;;;10.16;100.00;99600.91;10340667;28;20524;-63
2023/12/25 07:42:44;;;;;;;0.28;0.10;;;;;;;10.26;100.00;99636.34;10335821;28;20144;-63
2023/12/25 07:47:45;;;;;;;0.20;0.00;;;;;;;10.20;100.00;99644.88;10338100;28;20057;-63
2023/12/25 07:52:47;;;;;;;1.15;0.00;;;;;;;10.22;100.00;99639.44;10337720;28;20065;-63
2023/12/25 07:57:49;;;;;;;0.10;0.00;;;;;;;10.14;100.00;99618.84;10329279;28;20054;-61
2023/12/25 08:02:51;;;;;;;0.40;0.00;;;;;;;10.12;100.00;99634.09;10317539;28;20137;-62
2023/12/25 08:07:53;;;;;;;0.10;0.00;;;;;;;10.14;100.00;99637.44;10350325;28;20104;-62
2023/12/25 08:12:55;;;;;;;0.10;0.00;;;;;;;10.15;100.00;99635.63;10327761;28;20623;-63
2023/12/25 08:17:56;;;;;;;0.13;0.00;;;;;;;10.11;100.00;99635.06;10350603;28;20058;-61
2023/12/25 08:22:59;;;;;;;0.10;0.00;;;;;;;9.99;100.00;99636.97;10339191;28;20049;-62
2023/12/25 08:28:00;;;;;;;1.80;0.15;;;;;;;10.11;100.00;99639.56;10328875;28;20120;-63
2023/12/25 08:33:03;;;;;;;0.20;0.00;;;;;;;10.09;100.00;99642.34;10336667;28;20661;-62
2023/12/25 08:38:04;;;;;;;0.20;0.00;;;;;;;10.04;100.00;99650.72;10345653;28;20076;-61
2023/12/25 08:43:06;;;;;;;0.82;0.00;;;;;;;10.07;100.00;99654.91;10328830;28;20160;-61
2023/12/25 08:48:07;;;;;;;0.22;0.10;;;;;;;10.00;100.00;99673.25;10343065;28;20662;-63
2023/12/25 08:53:09;;;;;;;0.60;0.00;;;;;;;10.09;100.00;99676.91;10345104;28;20061;-61
2023/12/25 08:58:11;;;;;;;0.30;0.17;;;;;;;10.05;100.00;99656.88;10345077;28;20154;-61
2023/12/25 09:03:12;;;;;;;0.30;0.00;;;;;;;10.12;100.00;99663.34;10349506;28;20367;-63
2023/12/25 09:08:14;;;;;;;0.20;0.10;;;;;;;10.17;100.00;99665.59;10336829;28;20326;-61
2023/12/25 09:13:16;;;;;;;0.60;0.00;;;;;;;10.09;100.00;99684.91;10335971;28;20600;-62
2023/12/25 09:18:18;;;;;;;1.10;0.00;;;;;;;10.13;100.00;99686.28;10344066;28;20072;-61
2023/12/25 09:23:19;;;;;;;0.20;0.00;;;;;;;10.21;100.00;99694.44;10342626;28;20060;-62
2023/12/25 09:28:21;;;;;;;0.80;0.10;;;;;;;10.12;100.00;99687.28;10344739;28;20127;-61
2023/12/25 09:33:24;;;;;;;0.20;0.00;;;;;;;10.09;100.00;99683.06;10345197;28;20257;-61
2023/12/25 09:38:26;;;;;;;0.10;0.00;;;;;;;10.17;100.00;99676.25;10330857;28;20426;-61
2023/12/25 09:43:28;;;;;;;0.10;0.00;;;;;;;10.19;100.00;99696.41;10331053;28;20077;-62
2023/12/25 09:48:30;;;;;;;0.40;0.10;;;;;;;10.21;100.00;99694.44;10347727;28;20504;-60
2023/12/25 09:53:32;;;;;;;0.32;0.10;;;;;;;10.23;100.00;99689.81;10343354;28;20050;-61
2023/12/25 09:58:35;;;;;;;0.57;0.10;;;;;;;10.21;100.00;99698.94;10344245;28;20045;-62
2023/12/25 10:03:47;;;;;;;0.20;0.00;;;;;;;10.24;100.00;99694.19;10346397;28;20143;-62
2023/12/25 10:08:50;;;;;;;0.22;0.00;;;;;;;10.26;100.00;99702.84;10346730;28;20073;-61
2023/12/25 10:13:52;;;;;;;0.57;0.20;;;;;;;10.25;100.00;99692.34;10325355;28;20054;-62
2023/12/25 10:18:55;;;;;;;0.70;0.10;;;;;;;10.17;100.00;99676.25;10337476;28;21048;-62
2023/12/25 10:23:57;;;;;;;0.57;0.20;;;;;;;10.29;100.00;99684.97;10316511;28;20791;-61
2023/12/25 10:29:08;;;;;;;0.10;0.00;;;;;;;10.19;100.00;99680.47;10345910;28;20071;-63
2023/12/25 10:34:10;;;;;;;0.20;0.00;;;;;;;10.20;100.00;99674.13;10348784;28;20042;-63
2023/12/25 10:39:28;;;;;;;0.28;0.10;;;;;;;10.29;100.00;99693.78;10338823;28;20078;-63
2023/12/25 10:44:32;;;;;;;0.17;0.10;;;;;;;10.23;100.00;99671.22;10339547;28;20076;-62
2023/12/25 10:49:35;;;;;;;0.35;0.00;;;;;;;10.31;100.00;99675.00;10345701;28;20155;-62
2023/12/25 10:54:39;;;;;;;0.08;0.00;;;;;;;10.31;100.00;99677.69;10356347;28;20088;-63
2023/12/25 10:59:42;;;;;;;0.13;0.00;;;;;;;10.23;100.00;99663.22;10337322;28;20057;-63
2023/12/25 11:04:46;;;;;;;0.13;0.00;;;;;;;10.35;100.00;99673.81;10359731;28;20600;-63
2023/12/25 11:09:48;;;;;;;0.80;0.30;;;;;;;10.40;100.00;99682.19;10345591;28;20045;-62
2023/12/25 11:14:50;;;;;;;0.20;0.10;;;;;;;10.42;100.00;99675.78;10327262;28;20049;-63
2023/12/25 11:19:52;;;;;;;0.30;0.08;;;;;;;10.31;100.00;99661.72;10323490;28;21007;-63
2023/12/25 11:25:00;;;;;;;0.40;0.10;;;;;;;10.43;100.00;99673.94;10356213;28;20073;-62
2023/12/25 11:30:08;;;;;;;0.10;0.00;;;;;;;10.41;100.00;99670.59;10349921;28;20050;-64
2023/12/25 11:35:11;;;;;;;1.38;0.80;;;;;;;10.47;100.00;99672.72;10347226;28;20228;-63
2023/12/25 11:40:12;;;;;;;0.43;0.20;;;;;;;10.48;100.00;99669.06;10311265;28;20060;-62
2023/12/25 11:45:14;;;;;;;0.55;0.13;;;;;;;10.46;100.00;99667.53;10341621;28;20135;-63
2023/12/25 11:50:16;;;;;;;1.27;0.40;;;;;;;10.43;100.00;99665.97;10338189;28;20054;-63
2023/12/25 11:55:24;;;;;;;1.25;0.65;;;;;;;10.52;100.00;99667.81;10338321;28;20050;-61
2023/12/25 12:00:26;;;;;;;0.80;0.20;;;;;;;10.52;100.00;99670.47;10337538;28;20053;-62
2023/12/25 12:05:28;;;;;;;2.35;0.70;;;;;;;10.50;100.00;99671.59;10296196;28;20523;-63
2023/12/25 12:10:30;;;;;;;0.30;0.10;;;;;;;10.36;100.00;99640.91;10333498;28;20041;-63
2023/12/25 12:15:31;;;;;;;0.10;0.00;;;;;;;10.51;100.00;99670.59;10325573;28;20046;-63
2023/12/25 12:20:33;;;;;;;0.28;0.00;;;;;;;10.55;100.00;99675.53;10344468;28;20050;-63
2023/12/25 12:25:34;;;;;;;0.17;0.00;;;;;;;10.56;100.00;99655.91;10352081;28;20042;-62
2023/12/25 12:30:36;;;;;;;0.13;0.00;;;;;;;10.56;100.00;99655.06;10325061;28;20053;-64
2023/12/25 12:35:39;;;;;;;0.77;0.20;;;;;;;10.49;100.00;99652.09;10342848;28;20054;-63
2023/12/25 12:40:42;;;;;;;0.45;0.20;;;;;;;10.55;100.00;99646.25;10343199;28;20219;-63
2023/12/25 12:45:45;;;;;;;0.60;0.55;;;;;;;10.55;100.00;99643.59;10342146;28;20203;-63
2023/12/25 12:50:46;;;;;;;0.30;0.20;;;;;;;10.61;100.00;99653.69;10344002;28;20071;-63
2023/12/25 12:55:48;;;;;;;0.10;0.00;;;;;;;10.66;100.00;99655.06;10337264;28;20567;-63
2023/12/25 13:00:50;;;;;;;0.80;0.03;;;;;;;10.66;100.00;99634.63;10343943;28;20065;-63
2023/12/25 13:05:53;;;;;;;0.28;0.10;;;;;;;10.67;100.00;99654.09;10343878;28;20731;-61
2023/12/25 13:10:56;;;;;;;0.20;0.00;;;;;;;10.65;100.00;99648.91;10345371;28;20061;-64
2023/12/25 13:15:57;;;;;;;0.10;0.00;;;;;;;10.63;100.00;99650.03;10350463;28;20179;-64
2023/12/25 13:21:00;;;;;;;0.25;0.10;;;;;;;10.65;100.00;99643.59;10342146;28;20675;-62
2023/12/25 13:26:05;;;;;;;0.10;0.00;;;;;;;10.65;100.00;99658.72;10337379;28;20053;-63
2023/12/25 13:31:07;;;;;;;0.52;0.10;;;;;;;10.63;100.00;99650.03;10341222;28;20686;-63
2023/12/25 13:36:10;;;;;;;0.20;0.00;;;;;;;10.66;100.00;99655.06;10344063;28;20042;-63
2023/12/25 13:41:12;;;;;;;0.10;0.10;;;;;;;10.63;100.00;99647.38;10343268;28;20058;-61
2023/12/25 13:46:14;;;;;;;0.60;0.30;;;;;;;10.56;100.00;99634.63;10351218;28;20448;-63
2023/12/25 13:51:16;;;;;;;0.10;0.00;;;;;;;10.71;100.00;99647.53;10343916;28;20053;-63
2023/12/25 13:56:19;;;;;;;0.73;0.20;;;;;;;10.71;100.00;99632.38;10346887;28;20096;-64
2023/12/25 14:01:21;;;;;;;0.22;0.10;;;;;;;10.74;100.00;99647.25;10337677;28;20838;-63
2023/12/25 14:06:22;;;;;;;0.45;0.20;;;;;;;10.74;100.00;99665.88;10341510;28;20567;-64
2023/12/25 14:11:24;;;;;;;0.10;0.10;;;;;;;10.74;100.00;99650.75;10354481;28;20104;-63
2023/12/25 14:16:25;;;;;;;0.20;0.00;;;;;;;10.78;100.00;99668.13;10341397;28;20072;-62
2023/12/25 14:21:29;;;;;;;0.20;0.10;;;;;;;10.79;100.00;99690.25;10343786;28;20791;-64
2023/12/25 14:26:31;;;;;;;0.90;0.63;;;;;;;10.76;100.00;99671.91;10344761;28;20061;-64
2023/12/25 14:31:32;;;;;;;0.77;0.45;;;;;;;10.68;100.00;99663.78;10325148;28;20141;-63
2023/12/25 14:36:34;;;;;;;1.10;0.75;;;;;;;10.70;100.00;99672.47;10341183;28;20135;-63
2023/12/25 14:41:36;;;;;;;4.63;4.03;;;;;;;10.72;100.00;99671.34;10344448;28;20603;-63
2023/12/25 14:46:41;;;;;;;0.95;0.40;;;;;;;10.73;100.00;99677.50;10337813;28;20046;-62
2023/12/25 14:51:43;;;;;;;0.55;0.20;;;;;;;10.75;100.00;99688.88;10329936;28;20064;-63
2023/12/25 14:56:45;;;;;;;0.25;0.10;;;;;;;10.77;100.00;99689.56;10339054;28;20053;-62
2023/12/25 15:01:47;;;;;;;0.60;0.30;;;;;;;10.77;100.00;99685.06;10325571;28;20081;-64
2023/12/25 15:06:49;;;;;;;0.52;0.10;;;;;;;10.73;100.00;99690.81;10342849;28;20868;-61
2023/12/25 15:11:51;;;;;;;1.05;0.20;;;;;;;10.76;100.00;99682.53;10336527;28;20046;-63
2023/12/25 15:16:55;;;;;;;0.60;0.28;;;;;;;10.78;100.00;99685.94;10333958;28;20053;-64
2023/12/25 15:21:57;;;;;;;0.43;0.00;;;;;;;10.77;100.00;99694.88;10340595;28;20192;-62
2023/12/25 15:26:59;;;;;;;0.43;0.13;;;;;;;10.79;100.00;99695.56;10339036;28;20053;-65
2023/12/25 15:32:00;;;;;;;0.30;0.20;;;;;;;10.74;100.00;99688.00;10337586;28;20061;-63
2023/12/25 15:37:02;;;;;;;0.35;0.10;;;;;;;10.87;100.00;99713.50;10337272;28;20468;-62
2023/12/25 15:42:04;;;;;;;0.40;0.10;;;;;;;10.88;100.00;99713.38;10336434;28;20655;-63
2023/12/25 15:47:08;;;;;;;0.40;0.10;;;;;;;10.88;100.00;99724.03;10333649;28;20056;-62
2023/12/25 15:52:14;;;;;;;1.35;0.40;;;;;;;10.75;100.00;99703.00;10321623;28;20057;-64
2023/12/25 15:57:16;;;;;;;0.40;0.10;;;;;;;10.79;100.00;99701.75;10349945;28;20069;-63
2023/12/25 16:02:19;;;;;;;0.28;0.10;;;;;;;10.74;100.00;99717.28;10330609;28;20054;-62
2023/12/25 16:07:20;;;;;;;0.50;0.30;;;;;;;10.73;100.00;99710.31;10341030;28;20104;-64
2023/12/25 16:12:23;;;;;;;0.65;0.28;;;;;;;10.78;100.00;99728.53;10339643;28;20514;-64
2023/12/25 16:17:25;;;;;;;0.40;0.17;;;;;;;10.70;100.00;99713.22;10339728;28;20570;-63
2023/12/25 16:22:30;;;;;;;1.30;0.13;;;;;;;10.77;100.00;99725.00;10340364;28;20624;-62
2023/12/25 16:27:32;;;;;;;1.50;0.52;;;;;;;10.75;100.00;99718.16;10344554;28;21413;-63
2023/12/25 16:32:36;;;;;;;0.40;0.30;;;;;;;10.86;100.00;99744.63;10345164;28;20065;-62
2023/12/25 16:37:38;;;;;;;0.82;0.20;;;;;;;10.87;100.00;99727.69;10347291;28;20049;-64
2023/12/25 16:42:40;;;;;;;16.05;12.65;;;;;;;10.85;100.00;99740.28;10343447;28;20045;-62
2023/12/25 16:47:41;;;;;;;0.22;0.10;;;;;;;10.79;100.00;99743.50;10343636;28;20052;-63
2023/12/25 16:52:45;;;;;;;1.75;0.35;;;;;;;10.81;100.00;99740.69;10342792;28;20077;-63
2023/12/25 16:57:47;;;;;;;0.77;0.35;;;;;;;10.88;100.00;99753.31;10345254;28;20695;-64
2023/12/25 17:02:50;;;;;;;2.40;1.88;;;;;;;10.83;100.00;99752.06;10333455;28;20068;-63
2023/12/25 17:07:54;;;;;;;1.55;0.63;;;;;;;10.76;100.00;99730.47;10346611;28;20266;-64
2023/12/25 17:12:58;;;;;;;0.45;0.22;;;;;;;10.82;100.00;99735.22;10338727;28;20281;-63
2023/12/25 17:17:59;;;;;;;0.65;0.43;;;;;;;10.84;100.00;99743.09;10337508;28;20053;-62
2023/12/25 17:23:02;;;;;;;0.45;0.20;;;;;;;10.85;100.00;99750.94;10347092;28;20545;-63
2023/12/25 17:28:04;;;;;;;0.85;0.35;;;;;;;10.91;100.00;99733.56;10328420;28;20458;-63
2023/12/25 17:33:06;;;;;;;3.63;2.67;;;;;;;10.79;100.00;99738.19;10342298;28;20056;-66
2023/12/25 17:38:10;;;;;;;2.15;1.60;;;;;;;10.85;100.00;99744.78;10341518;28;20089;-62
2023/12/25 17:43:12;;;;;;;1.33;0.57;;;;;;;10.88;100.00;99745.34;10338274;28;20204;-62
2023/12/25 17:48:20;;;;;;;0.65;0.30;;;;;;;10.78;100.00;99739.19;10339820;28;20076;-63
2023/12/25 17:53:22;;;;;;;1.40;0.60;;;;;;;10.85;100.00;99755.44;10334211;28;20505;-64
2023/12/25 17:58:23;;;;;;;1.15;0.40;;;;;;;10.87;100.00;99753.47;10343507;28;20073;-65
2023/12/25 18:03:25;;;;;;;0.60;0.20;;;;;;;10.88;100.00;99749.81;10331478;28;20053;-63
2023/12/25 18:08:30;;;;;;;0.88;0.38;;;;;;;10.91;100.00;99758.41;10353548;28;20053;-63
2023/12/25 18:13:31;;;;;;;0.65;0.20;;;;;;;10.91;100.00;99755.72;10341604;28;20127;-63
2023/12/25 18:18:35;;;;;;;0.93;0.68;;;;;;;10.83;100.00;99744.91;10332892;28;20471;-63
2023/12/25 18:23:37;;;;;;;0.70;0.20;;;;;;;10.79;100.00;99757.69;10342487;28;20042;-63
2023/12/25 18:28:39;;;;;;;1.30;0.73;;;;;;;10.76;100.00;99749.97;10327403;28;20058;-61
2023/12/25 18:33:40;;;;;;;0.85;0.30;;;;;;;10.77;100.00;99753.47;10339447;28;20050;-63
2023/12/25 18:38:42;;;;;;;0.60;0.40;;;;;;;10.83;100.00;99758.22;10348848;28;20053;-64
2023/12/25 18:43:45;;;;;;;0.40;0.30;;;;;;;10.75;100.00;99750.94;10354445;28;20053;-63
2023/12/25 18:48:47;;;;;;;0.63;0.20;;;;;;;10.71;100.00;99751.34;10339453;28;20756;-63
2023/12/25 18:53:49;;;;;;;0.55;0.40;;;;;;;10.72;100.00;99761.00;10344274;28;20061;-65
2023/12/25 18:58:52;;;;;;;0.80;0.50;;;;;;;10.76;100.00;99752.63;10340540;28;20184;-66
2023/12/25 19:03:55;;;;;;;1.02;0.50;;;;;;;10.68;100.00;99747.13;10340957;28;20060;-66
2023/12/25 19:08:56;;;;;;;0.80;0.38;;;;;;;10.76;100.00;99751.75;10333327;28;20752;-65
2023/12/25 19:13:58;;;;;;;0.88;0.47;;;;;;;10.76;100.00;99752.63;10328723;28;21000;-65
2023/12/25 19:19:01;;;;;;;1.00;0.30;;;;;;;10.73;100.00;99741.38;10352291;28;20057;-67
2023/12/25 19:24:03;;;;;;;0.60;0.40;;;;;;;10.66;100.00;99749.09;10331387;28;20092;-66
2023/12/25 19:29:05;;;;;;;2.00;0.35;;;;;;;10.74;100.00;99748.41;10332617;28;20147;-66
2023/12/25 19:34:08;;;;;;;0.85;0.40;;;;;;;10.74;100.00;99753.72;10347957;28;20045;-67
2023/12/25 19:39:10;;;;;;;1.00;0.50;;;;;;;10.77;100.00;99754.28;10343836;28;20148;-66
2023/12/25 19:44:13;;;;;;;1.35;0.50;;;;;;;10.80;100.00;99753.19;10342942;28;20054;-67
2023/12/25 19:49:15;;;;;;;1.35;0.50;;;;;;;10.77;100.00;99753.47;10336763;28;20053;-67
2023/12/25 19:54:17;;;;;;;0.45;0.25;;;;;;;10.71;100.00;99743.34;10341136;28;21409;-66
2023/12/25 19:59:23;;;;;;;1.08;0.47;;;;;;;10.75;100.00;99750.09;10343504;28;20056;-66
2023/12/25 20:04:25;;;;;;;0.60;0.20;;;;;;;10.76;100.00;99749.09;10347015;28;20144;-64
2023/12/25 20:09:27;;;;;;;0.30;0.10;;;;;;;10.75;100.00;99758.09;10339488;28;20055;-63
2023/12/25 20:14:30;;;;;;;1.15;0.40;;;;;;;10.76;100.00;99743.78;10344522;28;20048;-64
2023/12/25 20:19:32;;;;;;;1.13;0.50;;;;;;;10.81;100.00;99744.22;10332272;28;20046;-64
2023/12/25 20:24:34;;;;;;;1.70;0.50;;;;;;;10.71;100.00;99733.53;10339680;28;20052;-64
2023/12/25 20:29:37;;;;;;;0.80;0.20;;;;;;;10.71;100.00;99743.34;10326060;28;20050;-63
2023/12/25 20:34:39;;;;;;;0.73;0.20;;;;;;;10.70;100.00;99739.84;10344933;28;20045;-63
2023/12/25 20:39:42;;;;;;;0.40;0.15;;;;;;;10.65;100.00;99744.75;10345280;28;20053;-63
2023/12/25 20:44:44;;;;;;;1.50;0.40;;;;;;;10.75;100.00;99750.09;10333968;28;20056;-65
2023/12/25 20:49:46;;;;;;;0.70;0.52;;;;;;;10.77;100.00;99737.47;10354037;28;20069;-63
2023/12/25 20:54:49;;;;;;;0.73;0.30;;;;;;;10.61;100.00;99717.56;10344280;28;20057;-63
2023/12/25 20:59:51;;;;;;;0.95;0.20;;;;;;;10.56;100.00;99701.16;10346866;28;20053;-63
2023/12/25 21:04:52;;;;;;;1.58;0.35;;;;;;;10.59;100.00;99706.19;10337497;28;20057;-61
2023/12/25 21:09:54;;;;;;;0.32;0.20;;;;;;;10.52;100.00;99681.09;10335401;28;20649;-61
2023/12/25 21:14:55;;;;;;;0.63;0.28;;;;;;;10.60;100.00;99701.75;10345429;28;20765;-62
2023/12/25 21:20:00;;;;;;;;;;;;;;;10.59;100.00;99695.56;10343793;28;20052;-62
2023/12/25 21:25:03;;;;;;;0.52;0.30;;;;;;;10.51;100.00;99697.22;10358425;28;19924;-62
2023/12/25 21:30:07;;;;;;;0.65;0.35;;;;;;;10.44;100.00;99689.78;10348044;28;20132;-63
2023/12/25 21:35:11;;;;;;;1.45;1.15;;;;;;;10.46;100.00;99670.19;10347905;28;20730;-63
2023/12/25 21:40:12;;;;;;;1.42;0.77;;;;;;;10.57;100.00;99678.88;10346494;28;20046;-62
2023/12/25 21:45:17;;;;;;;;;;;;;;;10.32;100.00;99636.81;10346485;28;20049;-62
2023/12/25 21:50:19;;;;;;;0.80;0.80;;;;;;;10.54;100.00;99667.69;10352004;28;19926;-63
2023/12/25 21:55:21;;;;;;;0.75;0.43;;;;;;;10.52;100.00;99674.94;10351197;28;20053;-63
2023/12/25 22:00:25;;;;;;;0.77;0.20;;;;;;;10.49;100.00;99675.22;10344089;28;20065;-63
2023/12/25 22:05:27;;;;;;;0.60;0.22;;;;;;;10.57;99.97;99670.06;10351622;28;20050;-63
2023/12/25 22:10:30;;;;;;;0.40;0.10;;;;;;;10.50;100.00;99674.25;10348204;28;20068;-62
2023/12/25 22:15:31;;;;;;;0.85;0.35;;;;;;;10.42;100.00;99643.84;10346113;28;20046;-61
2023/12/25 22:20:33;;;;;;;0.50;0.10;;;;;;;10.56;100.00;99677.19;10347645;28;20163;-61
2023/12/25 22:25:35;;;;;;;0.77;0.10;;;;;;;10.51;100.00;99668.81;10354232;28;20548;-63
2023/12/25 22:30:39;;;;;;;0.98;0.20;;;;;;;10.51;100.00;99668.81;10341171;28;20160;-63
2023/12/25 22:35:40;;;;;;;0.57;0.20;;;;;;;10.50;100.00;99669.75;10348439;28;20088;-62
2023/12/25 22:40:42;;;;;;;0.47;0.20;;;;;;;10.53;100.00;99668.66;10320860;28;20642;-62
2023/12/25 22:45:43;;;;;;;0.90;0.10;;;;;;;10.56;99.88;99658.56;10343150;28;21583;-61
2023/12/25 22:50:45;;;;;;;1.42;0.20;;;;;;;10.51;100.00;99652.84;10340838;28;20134;-63
2023/12/25 22:55:46;;;;;;;0.30;0.20;;;;;;;10.60;100.00;99654.66;10340679;28;20527;-63
2023/12/25 23:00:48;;;;;;;0.52;0.20;;;;;;;10.65;100.00;99648.09;10347232;28;20049;-62
2023/12/25 23:05:50;;;;;;;0.57;0.22;;;;;;;10.59;99.82;99637.00;10343851;28;20099;-61
2023/12/25 23:10:52;;;;;;;0.30;0.10;;;;;;;10.69;99.74;99652.13;10343054;28;20049;-63
2023/12/25 23:15:54;;;;;;;0.40;0.10;;;;;;;10.64;99.99;99649.06;10347194;28;20069;-62